Terminal Aerodrome Forecast
Issued by NWS

Home | Current Version | Previous Version | Text Only | Print | Product List | Glossary On
Versions: 1 2 3 4 5 6 7 8 9 10 11 12 13 14 15 16 17
000
FTUS43 KDLH 191100
TAFHYR
TAF
KHYR 191131Z 1912/2012 36008KT P6SM VCSH BKN023 BKN035
      TEMPO 1914/1916 SCT035
     FM191600 36010KT P6SM SCT050
     FM192000 33008KT P6SM FEW050
     FM200100 VRB04KT P6SM SKC=

USA.gov is the U.S. government's official web portal to all federal, state and local government web resources and services.